Terminal Aerodrome Forecast
Issued by NWS Billings, MT

Home | Current Version | Previous Version | Text Only | Print | Product List | Glossary On
Versions: 1 2 3 4 5 6 7 8 9 10 11 12 13 14 15 16 17 18 19 20 21 22 23 24 25 26
000
FTUS45 KBYZ 310533
TAFMLS
TAF
KMLS 310533Z 3106/0106 16005KT P6SM SKC
     FM310900 08006KT 3SM -FZDZ SCT003 OVC008
     FM311700 06011KT 3SM -SN BR BKN005 OVC010
     FM010300 03009KT P6SM -SN BKN020 OVC030=

USA.gov is the U.S. government's official web portal to all federal, state and local government web resources and services.